ARG1709 SAAR-SABE
Flight info
| Callsign | ARG1709 |
|---|---|
| Flight time | 0h 40m |
| Altitude | 23000 |
| Route | VASAL2C VASAL W20 MULTA W24 SNT SNT9R |
| Aircraft | E190/M-SDE3GILORVW/S |
Departure
| Time | 2026-05-01 14:25 |
|---|---|
| Airport | Rosario Islas Malvinas International Airport (SAAR) |
Arrival
| Time | 2026-05-01 15:05 |
|---|---|
| Airport | Aeroparque Jorge Newbery (SABE) |
| Time | Latitude | Longitude | Altitude | Speed | Heading |
|---|---|---|---|---|---|
| 2026-05-01 14:15 | -32.91605 | -60.78120 | 96 ft | 0 kts | 111° |
| 2026-05-01 14:19 | -32.91603 | -60.78127 | 94 ft | 4 kts | 111° |
| 2026-05-01 14:19 | -32.91592 | -60.78157 | 94 ft | 4 kts | 116° |
| 2026-05-01 14:19 | -32.91579 | -60.78185 | 94 ft | 4 kts | 126° |
| 2026-05-01 14:19 | -32.91562 | -60.78207 | 98 ft | 4 kts | 159° |
| 2026-05-01 14:20 | -32.91548 | -60.78210 | 94 ft | 0 kts | 201° |
| 2026-05-01 14:22 | -32.91575 | -60.78223 | 97 ft | 9 kts | 201° |
| 2026-05-01 14:22 | -32.91611 | -60.78240 | 96 ft | 13 kts | 201° |
| 2026-05-01 14:22 | -32.91720 | -60.78291 | 94 ft | 20 kts | 203° |
| 2026-05-01 14:23 | -32.91773 | -60.78441 | 94 ft | 23 kts | 258° |
| 2026-05-01 14:23 | -32.91770 | -60.78623 | 94 ft | 19 kts | 316° |
| 2026-05-01 14:23 | -32.91649 | -60.78728 | 94 ft | 23 kts | 341° |
| 2026-05-01 14:23 | -32.91561 | -60.78744 | 95 ft | 0 kts | 10° |
| 2026-05-01 14:24 | -32.91481 | -60.78725 | 96 ft | 42 kts | 11° |
| 2026-05-01 14:24 | -32.91266 | -60.78675 | 97 ft | 82 kts | 11° |
| 2026-05-01 14:24 | -32.90460 | -60.78499 | 98 ft | 157 kts | 9° |
| 2026-05-01 14:24 | -32.89184 | -60.78238 | 433 ft | 208 kts | 9° |
| 2026-05-01 14:25 | -32.87692 | -60.77905 | 1113 ft | 227 kts | 10° |
| 2026-05-01 14:25 | -32.86128 | -60.77528 | 2128 ft | 228 kts | 11° |
| 2026-05-01 14:25 | -32.85254 | -60.77288 | 2862 ft | 225 kts | 16° |
| 2026-05-01 14:25 | -32.84167 | -60.76451 | 3924 ft | 226 kts | 48° |
| 2026-05-01 14:26 | -32.83526 | -60.74706 | 4944 ft | 239 kts | 78° |
| 2026-05-01 14:26 | -32.84721 | -60.70982 | 6861 ft | 261 kts | 131° |
| 2026-05-01 14:26 | -32.85996 | -60.69416 | 7765 ft | 266 kts | 135° |
| 2026-05-01 14:27 | -32.87332 | -60.67852 | 8660 ft | 273 kts | 136° |
| 2026-05-01 14:27 | -32.88721 | -60.66276 | 9580 ft | 279 kts | 137° |
| 2026-05-01 14:27 | -32.90212 | -60.64763 | 10470 ft | 289 kts | 147° |
| 2026-05-01 14:28 | -32.94264 | -60.63032 | 11447 ft | 332 kts | 168° |
| 2026-05-01 14:28 | -32.96555 | -60.62275 | 11968 ft | 352 kts | 167° |
| 2026-05-01 14:28 | -32.98979 | -60.61424 | 12488 ft | 372 kts | 166° |
| 2026-05-01 14:28 | -33.01486 | -60.60519 | 13279 ft | 380 kts | 166° |
| 2026-05-01 14:29 | -33.04039 | -60.59589 | 14224 ft | 385 kts | 166° |
| 2026-05-01 14:29 | -33.06615 | -60.58651 | 15218 ft | 390 kts | 166° |
| 2026-05-01 14:30 | -33.14514 | -60.55678 | 17885 ft | 404 kts | 166° |
| 2026-05-01 14:30 | -33.17205 | -60.54656 | 18628 ft | 409 kts | 166° |
| 2026-05-01 14:30 | -33.19935 | -60.53620 | 19343 ft | 414 kts | 166° |
| 2026-05-01 14:31 | -33.25493 | -60.51513 | 20696 ft | 424 kts | 166° |
| 2026-05-01 14:31 | -33.28312 | -60.50442 | 21350 ft | 429 kts | 166° |
| 2026-05-01 14:31 | -33.31180 | -60.49354 | 21954 ft | 434 kts | 167° |
| 2026-05-01 14:31 | -33.34063 | -60.48173 | 22537 ft | 442 kts | 160° |
| 2026-05-01 14:32 | -33.36814 | -60.46480 | 23048 ft | 444 kts | 153° |
| 2026-05-01 14:32 | -33.38547 | -60.45238 | 22978 ft | 431 kts | 152° |
| 2026-05-01 14:32 | -33.41853 | -60.42806 | 22899 ft | 404 kts | 152° |
| 2026-05-01 14:32 | -33.43412 | -60.41679 | 22920 ft | 390 kts | 153° |
| 2026-05-01 14:33 | -33.45694 | -60.40053 | 22893 ft | 374 kts | 153° |
| 2026-05-01 14:33 | -33.48689 | -60.37946 | 22924 ft | 377 kts | 154° |
| 2026-05-01 14:33 | -33.50198 | -60.36891 | 22923 ft | 380 kts | 154° |
| 2026-05-01 14:33 | -33.53228 | -60.34769 | 22926 ft | 382 kts | 154° |
| 2026-05-01 14:34 | -33.54779 | -60.33681 | 22929 ft | 382 kts | 154° |
| 2026-05-01 14:34 | -33.57075 | -60.32070 | 22932 ft | 382 kts | 154° |
| 2026-05-01 14:34 | -33.60109 | -60.29938 | 22932 ft | 382 kts | 154° |
| 2026-05-01 14:34 | -33.61658 | -60.28850 | 22931 ft | 382 kts | 154° |
| 2026-05-01 14:35 | -33.63967 | -60.27226 | 22944 ft | 393 kts | 153° |
| 2026-05-01 14:35 | -33.66392 | -60.25528 | 22991 ft | 414 kts | 153° |
| 2026-05-01 14:35 | -33.68920 | -60.23750 | 23035 ft | 427 kts | 153° |
| 2026-05-01 14:35 | -33.71534 | -60.21910 | 22926 ft | 438 kts | 153° |
| 2026-05-01 14:36 | -33.74206 | -60.20025 | 22919 ft | 453 kts | 153° |
| 2026-05-01 14:36 | -33.76935 | -60.18096 | 22913 ft | 458 kts | 153° |
| 2026-05-01 14:36 | -33.79691 | -60.16146 | 22905 ft | 461 kts | 153° |
| 2026-05-01 14:36 | -33.82457 | -60.14186 | 22909 ft | 462 kts | 152° |
| 2026-05-01 14:37 | -33.84989 | -60.11787 | 22924 ft | 468 kts | 135° |
| 2026-05-01 14:37 | -33.86976 | -60.08666 | 22932 ft | 470 kts | 124° |
| 2026-05-01 14:37 | -33.88723 | -60.05336 | 22900 ft | 470 kts | 123° |
| 2026-05-01 14:37 | -33.90486 | -60.02017 | 22904 ft | 470 kts | 123° |
| 2026-05-01 14:38 | -33.92259 | -59.98757 | 22907 ft | 470 kts | 124° |
| 2026-05-01 14:38 | -33.94062 | -59.95472 | 22916 ft | 470 kts | 124° |
| 2026-05-01 14:38 | -33.95872 | -59.92185 | 22904 ft | 470 kts | 124° |
| 2026-05-01 14:38 | -33.97681 | -59.88905 | 22916 ft | 470 kts | 124° |
| 2026-05-01 14:39 | -33.99494 | -59.85623 | 22905 ft | 471 kts | 124° |
| 2026-05-01 14:39 | -34.01307 | -59.82339 | 22902 ft | 470 kts | 124° |
| 2026-05-01 14:39 | -34.03120 | -59.79053 | 22906 ft | 470 kts | 124° |
| 2026-05-01 14:39 | -34.04933 | -59.75766 | 22908 ft | 470 kts | 124° |
| 2026-05-01 14:40 | -34.06744 | -59.72480 | 22899 ft | 470 kts | 124° |
| 2026-05-01 14:40 | -34.08551 | -59.69196 | 22909 ft | 470 kts | 124° |
| 2026-05-01 14:40 | -34.10362 | -59.65905 | 22915 ft | 470 kts | 124° |
| 2026-05-01 14:40 | -34.12171 | -59.62617 | 22916 ft | 470 kts | 124° |
| 2026-05-01 14:41 | -34.13978 | -59.59326 | 22910 ft | 471 kts | 124° |
| 2026-05-01 14:41 | -34.15785 | -59.56035 | 22916 ft | 471 kts | 124° |
| 2026-05-01 14:41 | -34.17595 | -59.52730 | 22923 ft | 470 kts | 124° |
| 2026-05-01 14:41 | -34.18582 | -59.50928 | 22915 ft | 470 kts | 124° |
| 2026-05-01 14:42 | -34.18769 | -59.50586 | 22916 ft | 470 kts | 124° |
| 2026-05-01 14:43 | -34.20535 | -59.47311 | 22892 ft | 454 kts | 123° |
| 2026-05-01 14:43 | -34.22185 | -59.44221 | 22841 ft | 425 kts | 124° |
| 2026-05-01 14:43 | -34.23742 | -59.41278 | 22881 ft | 406 kts | 123° |
| 2026-05-01 14:43 | -34.25215 | -59.38441 | 22909 ft | 394 kts | 123° |
| 2026-05-01 14:44 | -34.26661 | -59.35659 | 22925 ft | 390 kts | 123° |
| 2026-05-01 14:44 | -34.29425 | -59.30359 | 22919 ft | 391 kts | 123° |
| 2026-05-01 14:44 | -34.30877 | -59.27578 | 22919 ft | 391 kts | 123° |
| 2026-05-01 14:45 | -34.32330 | -59.24799 | 22922 ft | 392 kts | 123° |
| 2026-05-01 14:45 | -34.35246 | -59.19220 | 22926 ft | 392 kts | 123° |
| 2026-05-01 14:45 | -34.36712 | -59.16431 | 22927 ft | 392 kts | 123° |
| 2026-05-01 14:46 | -34.38176 | -59.13652 | 22930 ft | 392 kts | 123° |
| 2026-05-01 14:46 | -34.41109 | -59.08085 | 22930 ft | 392 kts | 123° |
| 2026-05-01 14:46 | -34.42576 | -59.05301 | 22904 ft | 392 kts | 123° |
| 2026-05-01 14:47 | -34.44045 | -59.02521 | 22907 ft | 392 kts | 123° |
| 2026-05-01 14:47 | -34.45497 | -58.99775 | 22900 ft | 393 kts | 123° |
| 2026-05-01 14:47 | -34.46968 | -58.96986 | 22921 ft | 393 kts | 123° |
| 2026-05-01 14:48 | -34.49916 | -58.91400 | 22916 ft | 393 kts | 123° |
| 2026-05-01 14:48 | -34.51388 | -58.88617 | 22921 ft | 393 kts | 123° |
| 2026-05-01 14:48 | -34.54344 | -58.83038 | 22917 ft | 393 kts | 123° |
| 2026-05-01 14:49 | -34.57298 | -58.77465 | 22917 ft | 393 kts | 123° |
| 2026-05-01 14:49 | -34.60274 | -58.71880 | 22918 ft | 394 kts | 124° |
| 2026-05-01 14:50 | -34.62746 | -58.67242 | 22917 ft | 394 kts | 124° |
| 2026-05-01 14:50 | -34.64914 | -58.60138 | 22972 ft | 388 kts | 87° |
| 2026-05-01 14:51 | -34.65149 | -58.56869 | 23190 ft | 391 kts | 92° |
| 2026-05-01 14:51 | -34.64352 | -58.50258 | 21309 ft | 406 kts | 76° |
| 2026-05-01 14:52 | -34.61896 | -58.44363 | 19468 ft | 393 kts | 45° |
| 2026-05-01 14:52 | -34.60509 | -58.41459 | 18523 ft | 407 kts | 66° |
| 2026-05-01 14:52 | -34.60415 | -58.34768 | 16349 ft | 399 kts | 108° |
| 2026-05-01 14:53 | -34.61712 | -58.31828 | 15154 ft | 394 kts | 128° |
| 2026-05-01 14:53 | -34.63711 | -58.29607 | 13960 ft | 386 kts | 147° |
| 2026-05-01 14:53 | -34.65946 | -58.27916 | 12755 ft | 380 kts | 155° |
| 2026-05-01 14:53 | -34.68385 | -58.26838 | 11735 ft | 367 kts | 169° |
| 2026-05-01 14:54 | -34.70837 | -58.26127 | 10719 ft | 359 kts | 171° |
| 2026-05-01 14:54 | -34.73228 | -58.25472 | 9918 ft | 344 kts | 171° |
| 2026-05-01 14:54 | -34.75523 | -58.24877 | 9183 ft | 330 kts | 171° |
| 2026-05-01 14:54 | -34.77733 | -58.24334 | 8422 ft | 318 kts | 171° |
| 2026-05-01 14:55 | -34.79876 | -58.23830 | 7654 ft | 310 kts | 171° |
| 2026-05-01 14:55 | -34.81960 | -58.23340 | 6897 ft | 302 kts | 171° |
| 2026-05-01 14:55 | -34.84001 | -58.22831 | 6183 ft | 297 kts | 163° |
| 2026-05-01 14:55 | -34.85705 | -58.21593 | 5846 ft | 278 kts | 131° |
| 2026-05-01 14:56 | -34.86553 | -58.19609 | 5558 ft | 256 kts | 95° |
| 2026-05-01 14:56 | -34.86322 | -58.17573 | 5336 ft | 239 kts | 57° |
| 2026-05-01 14:56 | -34.85199 | -58.16237 | 5138 ft | 222 kts | 19° |
| 2026-05-01 14:56 | -34.83728 | -58.15935 | 4909 ft | 212 kts | 356° |
| 2026-05-01 14:57 | -34.82276 | -58.16178 | 4651 ft | 211 kts | 343° |
| 2026-05-01 14:57 | -34.79452 | -58.17170 | 4132 ft | 209 kts | 344° |
| 2026-05-01 14:57 | -34.78053 | -58.17634 | 3877 ft | 208 kts | 343° |
| 2026-05-01 14:58 | -34.76660 | -58.18114 | 3613 ft | 208 kts | 343° |
| 2026-05-01 14:58 | -34.75264 | -58.18584 | 3362 ft | 208 kts | 345° |
| 2026-05-01 14:58 | -34.73864 | -58.19019 | 3107 ft | 206 kts | 345° |
| 2026-05-01 14:58 | -34.72485 | -58.19464 | 2854 ft | 204 kts | 345° |
| 2026-05-01 14:59 | -34.71113 | -58.19909 | 2587 ft | 204 kts | 345° |
| 2026-05-01 14:59 | -34.69752 | -58.20334 | 2503 ft | 196 kts | 346° |
| 2026-05-01 14:59 | -34.68444 | -58.20704 | 2592 ft | 191 kts | 347° |
| 2026-05-01 14:59 | -34.67186 | -58.21051 | 2594 ft | 182 kts | 346° |
| 2026-05-01 15:00 | -34.65607 | -58.23182 | 2080 ft | 176 kts | 292° |
| 2026-05-01 15:00 | -34.65162 | -58.24541 | 1922 ft | 169 kts | 298° |
| 2026-05-01 15:00 | -34.64636 | -58.25752 | 1724 ft | 155 kts | 303° |
| 2026-05-01 15:01 | -34.64086 | -58.26842 | 1414 ft | 149 kts | 304° |
| 2026-05-01 15:01 | -34.63531 | -58.27883 | 1104 ft | 144 kts | 304° |
| 2026-05-01 15:01 | -34.62989 | -58.28876 | 835 ft | 138 kts | 305° |
| 2026-05-01 15:01 | -34.62475 | -58.29812 | 732 ft | 129 kts | 305° |
| 2026-05-01 15:02 | -34.61976 | -58.30718 | 716 ft | 133 kts | 306° |
| 2026-05-01 15:02 | -34.61651 | -58.31298 | 737 ft | 132 kts | 305° |
| 2026-05-01 15:02 | -34.61368 | -58.31808 | 761 ft | 131 kts | 305° |
| 2026-05-01 15:02 | -34.60867 | -58.32704 | 765 ft | 127 kts | 306° |
| 2026-05-01 15:03 | -34.60367 | -58.33593 | 770 ft | 128 kts | 306° |
| 2026-05-01 15:03 | -34.59866 | -58.34490 | 776 ft | 128 kts | 305° |
| 2026-05-01 15:03 | -34.59369 | -58.35378 | 907 ft | 129 kts | 306° |
| 2026-05-01 15:03 | -34.58857 | -58.36277 | 913 ft | 131 kts | 306° |
| 2026-05-01 15:04 | -34.58341 | -58.37196 | 780 ft | 132 kts | 305° |
| 2026-05-01 15:04 | -34.57832 | -58.38119 | 572 ft | 131 kts | 305° |
| 2026-05-01 15:04 | -34.57327 | -58.39031 | 305 ft | 130 kts | 305° |
| 2026-05-01 15:04 | -34.56851 | -58.39932 | 138 ft | 124 kts | 304° |
| 2026-05-01 15:05 | -34.56382 | -58.40768 | 27 ft | 110 kts | 304° |
| 2026-05-01 15:05 | -34.56034 | -58.41380 | 27 ft | 64 kts | 304° |
| 2026-05-01 15:05 | -34.55829 | -58.41746 | 24 ft | 38 kts | 307° |
| 2026-05-01 15:05 | -34.55724 | -58.41901 | 24 ft | 12 kts | 3° |
| 2026-05-01 15:06 | -34.55694 | -58.41831 | 26 ft | 11 kts | 114° |
| 2026-05-01 15:06 | -34.55737 | -58.41744 | 25 ft | 13 kts | 121° |
| 2026-05-01 15:06 | -34.55780 | -58.41643 | 28 ft | 12 kts | 116° |
| 2026-05-01 15:06 | -34.55751 | -58.41569 | 27 ft | 11 kts | 37° |
| 2026-05-01 15:07 | -34.55709 | -58.41495 | 27 ft | 9 kts | 36° |
| 2026-05-01 15:07 | -34.55683 | -58.41483 | 26 ft | 0 kts | 16° |